• Join FlightAware (Why Join?)
  • Login
  • US Flag 
12:31PM EDT


 

Airport Tracker/Info


-or-


 

Live Flight TrackerFlight Track Log ✈ N606FT ✈ 10-May-2013 ✈ KAPF - KFXE

Flight Track Log - Related Links

Times and Time Zones

All times are in EDT time to prevent confusion due to time zone crossing. See the N606FT flight status page for this flight to view local times or setup timezone preferences in your user account.

Time Position Orientation Groundspeed Altitude Reporting Facility
EDT Latitude Longitude Course Direction KTS MPH feet Rate Location/Type
04:26PM 26.4572 -80.8108 88° East 101 116 3,400  Level Miami Center
04:27PM 26.4536 -80.7875 100° East 101 116 3,500  Climbing Miami Center
04:28PM 26.4503 -80.7525 96° East 101 116 3,400 -180 Descending Miami Center
04:28PM 26.4486 -80.7408 99° East 119 137 3,300 -180 Descending Miami Center
04:29PM 26.4447 -80.7314 115° Southeast 99 114 3,300  Level Miami Center
04:29PM 26.4450 -80.7200 88° East 101 116 3,300 60 Level Miami Center
04:30PM 26.4372 -80.7011 115° Southeast 91 105 3,400  Climbing Miami Center
04:31PM 26.4317 -80.6731 102° East 98 113 3,400  Level Miami Center
04:32PM 26.1659 -81.3568 88° East  Level Estimated
04:32PM 26.4197 -80.6450 115° Southeast 95 109 3,400  Level Miami Center
04:33PM 26.4081 -80.6167 115° Southeast 87 100 2,500  Descending Miami Center
04:34PM 26.3961 -80.5953 122° Southeast 92 106 3,500 480 Climbing Miami Center
04:35PM 26.3842 -80.5650 114° Southeast 94 108 3,500 -60 Level Miami Center
04:36PM 26.3786 -80.5392 103° East 92 106 3,400 -360 Descending Miami Center
04:37PM 26.3669 -80.5111 115° Southeast 106 122 2,800 -600 Descending Miami Center
04:38PM 26.3550 -80.4828 115° Southeast 97 112 2,300 -480 Descending Miami Center
04:39PM 26.3411 -80.4522 117° Southeast 98 113 1,800 -360 Descending Miami Center
04:40PM 26.3333 -80.4267 109° East 87 100 1,600 -180 Descending Miami Center
04:41PM 26.3258 -80.3939 104° East 85 98 1,500 -60 Descending Miami Center
04:42PM 26.3181 -80.3706 110° East 85 98 1,500  Level Miami Center
04:43PM 26.3081 -80.3469 115° Southeast 87 100 1,600  Climbing Miami Center
04:44PM 26.2961 -80.3258 122° Southeast 93 107 1,500 -180 Descending Miami Center
04:45PM 26.2822 -80.3022 123° Southeast 98 113 1,300 -240 Descending Miami Center
04:46PM 26.2681 -80.2786 124° Southeast 89 102 1,100 -120 Descending Miami Center
04:47PM 26.2497 -80.2550 131° Southeast 80 92 1,100  Level Miami Center
04:48PM 26.2378 -80.2314 119° Southeast 89 102 1,100 -240 Level Miami Center
04:49PM 26.2214 -80.2125 134° Southeast 78 90 700 -360 Descending Miami Center
04:50PM 26.2094 -80.1958 129° Southeast 68 78 500 -240 Descending Miami Center
04:52PM 26.1973 -80.1707 130° Southeast  Level Estimated
04:59PM 26.1973 -80.1707 130° Southeast  Level Estimated
05:00PM 26.1973 -80.1707 130° Southeast  Level Estimated